Time;durP1;ratioP1;P1;durP2;ratioP2;P2;SDS_P1;SDS_P2;PMS_P1;PMS_P2;Temp;Humidity;BMP_temperature;BMP_pressure;BME280_temperature;BME280_humidity;BME280_pressure;Samples;Min_cycle;Max_cycle;Signal;HPM_P1;HPM_P2
2022/12/07 00:01:52;;;;;;;35.17;22.07;;;;;;;6.97;93.54;99691.13;5051832;28;20188;-73
2022/12/07 00:04:19;;;;;;;36.47;22.50;;;;;;;6.98;93.97;99687.47;5052192;28;20200;-73
2022/12/07 00:06:48;;;;;;;43.53;24.80;;;;;;;6.95;93.72;99689.66;5051763;28;20651;-74
2022/12/07 00:09:16;;;;;;;33.47;20.70;;;;;;;6.92;93.86;99685.53;5052489;28;20199;-74
2022/12/07 00:11:44;;;;;;;39.03;19.87;;;;;;;6.94;94.04;99688.81;5052065;28;20552;-74
2022/12/07 00:14:15;;;;;;;41.93;20.77;;;;;;;6.92;93.51;99689.97;5051890;28;20254;-74
2022/12/07 00:16:42;;;;;;;33.03;19.13;;;;;;;6.81;93.28;99687.69;5051974;28;20193;-75
2022/12/07 00:19:11;;;;;;;26.97;17.77;;;;;;;6.71;93.45;99687.03;5052336;28;20245;-75
2022/12/07 00:21:38;;;;;;;27.50;15.43;;;;;;;6.65;93.97;99683.25;5056091;28;20186;-75
2022/12/07 00:24:06;;;;;;;27.43;15.63;;;;;;;6.68;94.29;99682.09;5056132;28;20253;-75
2022/12/07 00:26:35;;;;;;;20.53;12.93;;;;;;;6.65;93.93;99677.97;5056244;28;20690;-73
2022/12/07 00:29:04;;;;;;;17.93;11.20;;;;;;;6.74;93.28;99686.72;5055504;28;20561;-73
2022/12/07 00:31:34;;;;;;;17.43;11.03;;;;;;;6.67;92.97;99691.84;5055477;28;20703;-73
2022/12/07 00:34:01;;;;;;;12.03;9.73;;;;;;;6.61;92.50;99692.47;5055454;28;20197;-72
2022/12/07 00:36:29;;;;;;;18.33;9.73;;;;;;;6.59;92.50;99698.91;5055637;28;20272;-72
2022/12/07 00:38:58;;;;;;;15.13;10.93;;;;;;;6.58;93.55;99692.84;5056374;28;20275;-73
2022/12/07 00:41:26;;;;;;;17.70;10.67;;;;;;;6.57;93.35;99691.16;5055366;28;20188;-72
2022/12/07 00:43:53;;;;;;;15.23;11.43;;;;;;;6.59;93.13;99693.66;5055234;28;20194;-72
2022/12/07 00:46:21;;;;;;;18.87;11.90;;;;;;;6.62;92.84;99688.03;5055363;28;20200;-72
2022/12/07 00:48:50;;;;;;;21.40;13.07;;;;;;;6.65;92.84;99687.72;5055852;28;20197;-72
2022/12/07 00:51:18;;;;;;;18.97;12.83;;;;;;;6.68;93.22;99682.09;5055207;28;20196;-72
2022/12/07 00:53:45;;;;;;;20.60;13.67;;;;;;;6.69;93.26;99681.91;5054976;28;20873;-72
2022/12/07 00:56:13;;;;;;;31.80;18.07;;;;;;;6.69;92.48;99689.03;5055457;28;20564;-72
2022/12/07 00:58:40;;;;;;;34.13;19.57;;;;;;;6.61;93.73;99681.13;5054831;28;20713;-73
2022/12/07 01:01:09;;;;;;;38.73;20.40;;;;;;;6.58;94.09;99686.72;5055630;28;20193;-73
2022/12/07 01:03:37;;;;;;;40.20;19.03;;;;;;;6.60;94.59;99684.72;5054890;28;20242;-72
2022/12/07 01:06:06;;;;;;;34.17;21.03;;;;;;;6.64;94.56;99675.50;5054860;28;20197;-73
2022/12/07 01:08:33;;;;;;;55.07;21.33;;;;;;;6.60;94.40;99668.91;5054808;28;20196;-72
2022/12/07 01:11:01;;;;;;;43.83;19.70;;;;;;;6.60;94.64;99669.72;5055462;28;20675;-74
2022/12/07 01:13:28;;;;;;;42.97;20.40;;;;;;;6.61;95.02;99673.19;5055117;28;20295;-74
2022/12/07 01:15:58;;;;;;;40.40;20.63;;;;;;;6.58;94.22;99668.25;5054958;28;20201;-74
2022/12/07 01:18:24;;;;;;;43.60;21.23;;;;;;;6.49;94.85;99663.97;5055162;28;20223;-75
2022/12/07 01:20:58;;;;;;;39.17;19.53;;;;;;;6.35;95.64;99665.47;5055526;28;20228;-75
2022/12/07 01:23:27;;;;;;;45.50;20.33;;;;;;;6.30;96.08;99666.94;5055584;28;20220;-75
2022/12/07 01:25:56;;;;;;;43.83;20.30;;;;;;;6.30;96.59;99661.66;5054529;28;20195;-75
2022/12/07 01:28:23;;;;;;;40.73;20.90;;;;;;;6.31;95.77;99663.31;5054797;28;20204;-74
2022/12/07 01:30:56;;;;;;;40.13;19.20;;;;;;;6.25;96.80;99659.50;5054447;28;20196;-74
2022/12/07 01:33:23;;;;;;;38.40;18.93;;;;;;;6.29;97.06;99654.75;5055000;28;20234;-75
2022/12/07 01:35:50;;;;;;;36.97;19.37;;;;;;;6.34;96.56;99652.44;5054513;28;20204;-72
2022/12/07 01:38:17;;;;;;;36.07;18.67;;;;;;;6.35;96.34;99646.16;5054825;28;20218;-73
2022/12/07 01:40:45;;;;;;;37.67;19.50;;;;;;;6.36;97.33;99646.00;5054132;28;20624;-72
2022/12/07 01:43:18;;;;;;;38.53;19.60;;;;;;;6.40;95.70;99641.22;5055039;28;20200;-72
2022/12/07 01:45:44;;;;;;;45.07;20.80;;;;;;;6.37;95.41;99637.09;5054592;28;20212;-72
2022/12/07 01:48:14;;;;;;;34.60;18.43;;;;;;;6.39;95.99;99634.28;5054447;28;20193;-72
2022/12/07 01:50:43;;;;;;;35.20;18.77;;;;;;;6.45;95.69;99631.00;5054975;28;20191;-72
2022/12/07 01:53:11;;;;;;;38.80;20.03;;;;;;;6.47;95.01;99634.28;5054322;28;20201;-73
2022/12/07 01:55:42;;;;;;;39.37;19.20;;;;;;;6.50;94.64;99637.44;5053850;28;20663;-73
2022/12/07 01:58:11;;;;;;;42.20;19.30;;;;;;;6.49;94.19;99640.22;5053926;28;20753;-72
2022/12/07 02:00:39;;;;;;;35.13;18.40;;;;;;;6.42;94.86;99628.69;5054029;28;20232;-72
2022/12/07 02:03:10;;;;;;;37.23;19.67;;;;;;;6.43;95.29;99640.88;5054178;28;20252;-72
2022/12/07 02:05:39;;;;;;;40.50;18.00;;;;;;;6.47;94.50;99636.91;5054134;28;20643;-72
2022/12/07 02:08:06;;;;;;;36.30;19.07;;;;;;;6.39;93.94;99624.56;5054123;28;20191;-72
2022/12/07 02:10:34;;;;;;;37.97;18.63;;;;;;;6.47;94.22;99632.47;5053630;28;20196;-72
2022/12/07 02:13:05;;;;;;;34.13;18.43;;;;;;;6.37;94.12;99620.44;5054035;28;20256;-72
2022/12/07 02:15:58;;;;;;;34.47;17.87;;;;;;;6.49;94.67;99637.59;5054076;28;20183;-72
2022/12/07 02:18:35;;;;;;;25.77;16.37;;;;;;;6.53;94.45;99625.72;5054377;28;20250;-73
2022/12/07 02:21:10;;;;;;;26.93;15.67;;;;;;;6.57;94.64;99627.03;5053982;28;20630;-73
2022/12/07 02:24:18;;;;;;;25.70;14.30;;;;;;;6.56;94.27;99630.63;5053857;28;20667;-73
2022/12/07 02:27:21;;;;;;;26.90;14.50;;;;;;;6.57;93.46;99621.75;5025633;28;20238;-73
2022/12/07 02:29:54;;;;;;;24.50;13.90;;;;;;;6.57;93.85;99613.84;5051632;28;20193;-72
2022/12/07 02:32:26;;;;;;;20.27;13.90;;;;;;;6.53;93.62;99613.31;5033766;28;20673;-73
2022/12/07 02:35:02;;;;;;;24.03;13.77;;;;;;;6.54;93.83;99611.53;5033303;28;20646;-73
2022/12/07 02:37:38;;;;;;;25.47;13.63;;;;;;;6.56;93.68;99614.81;5051468;28;20242;-72
2022/12/07 02:40:10;;;;;;;20.13;12.67;;;;;;;6.54;93.51;99611.53;5053382;28;20274;-72
2022/12/07 02:42:43;;;;;;;22.50;12.77;;;;;;;6.50;94.11;99607.56;5053409;28;20196;-72
2022/12/07 02:45:15;;;;;;;16.57;12.13;;;;;;;6.39;93.71;99606.09;5053960;28;20190;-73
2022/12/07 02:47:44;;;;;;;21.07;14.07;;;;;;;6.22;93.53;99608.91;5054173;28;20185;-73
2022/12/07 02:50:11;;;;;;;31.70;17.10;;;;;;;6.12;94.20;99611.72;5052876;28;20266;-72
2022/12/07 02:52:38;;;;;;;25.50;15.43;;;;;;;6.06;94.82;99601.00;5053242;28;20192;-73
2022/12/07 02:55:06;;;;;;;23.43;14.80;;;;;;;6.10;95.78;99602.31;5053460;28;20653;-72
2022/12/07 02:57:49;;;;;;;24.73;13.87;;;;;;;6.14;95.52;99598.38;5052935;28;20193;-72
2022/12/07 03:00:19;;;;;;;26.40;14.50;;;;;;;6.18;94.61;99589.13;5052885;28;20208;-73
2022/12/07 03:02:54;;;;;;;28.97;13.90;;;;;;;6.18;94.85;99573.31;5052815;28;20186;-73
2022/12/07 03:05:45;;;;;;;21.30;11.97;;;;;;;6.18;93.73;99594.41;5053047;28;20679;-74
2022/12/07 03:08:16;;;;;;;21.03;12.67;;;;;;;6.14;94.28;99585.19;5052868;28;20555;-74
2022/12/07 03:10:53;;;;;;;24.57;12.20;;;;;;;6.17;95.12;99587.50;5052834;28;20307;-74
2022/12/07 03:13:28;;;;;;;13.93;11.63;;;;;;;6.10;94.93;99586.50;5052937;28;20188;-74
2022/12/07 03:16:03;;;;;;;17.00;11.40;;;;;;;6.17;95.89;99587.50;5053186;28;20188;-73
2022/12/07 03:18:33;;;;;;;40.73;24.60;;;;;;;6.13;95.40;99591.44;5052419;28;20636;-73
2022/12/07 03:21:04;;;;;;;43.10;21.83;;;;;;;6.17;95.20;99598.03;5053148;28;20281;-74
2022/12/07 03:23:34;;;;;;;39.53;19.47;;;;;;;6.21;95.82;99607.28;5052972;28;20185;-73
2022/12/07 03:26:03;;;;;;;34.37;18.37;;;;;;;6.23;95.53;99602.63;5052509;28;20194;-73
2022/12/07 03:28:35;;;;;;;19.13;12.70;;;;;;;6.25;95.06;99603.31;5052273;28;20664;-73
2022/12/07 03:31:08;;;;;;;15.43;11.87;;;;;;;6.26;94.41;99597.88;5052418;28;20184;-75
2022/12/07 03:33:43;;;;;;;19.00;10.73;;;;;;;6.28;95.41;99606.44;5052575;28;20189;-75
2022/12/07 03:36:16;;;;;;;19.17;9.83;;;;;;;6.33;94.46;99603.31;5052809;28;20184;-73
2022/12/07 03:38:48;;;;;;;15.97;10.57;;;;;;;6.34;94.31;99604.94;5052971;28;20189;-73
2022/12/07 03:41:23;;;;;;;19.93;10.23;;;;;;;6.37;94.19;99601.97;5052461;28;20251;-73
2022/12/07 03:43:50;;;;;;;15.03;8.63;;;;;;;6.40;94.76;99596.38;5052565;28;20191;-72
2022/12/07 03:46:26;;;;;;;20.13;10.60;;;;;;;6.37;94.64;99604.63;5052282;28;20242;-72
2022/12/07 03:49:00;;;;;;;15.73;10.40;;;;;;;6.36;93.98;99592.44;5052289;28;20188;-73
2022/12/07 03:51:33;;;;;;;13.97;11.03;;;;;;;6.37;94.49;99599.34;5052240;28;20185;-73
2022/12/07 03:54:08;;;;;;;22.37;12.87;;;;;;;6.38;94.09;99595.72;5051341;28;20248;-73
2022/12/07 03:56:36;;;;;;;24.73;15.60;;;;;;;6.37;93.87;99584.31;5052178;28;20252;-73
2022/12/07 03:59:03;;;;;;;18.87;13.77;;;;;;;6.39;94.37;99586.81;5052075;28;20282;-73
2022/12/07 04:01:32;;;;;;;17.83;12.43;;;;;;;6.42;93.60;99589.09;5052078;28;20254;-72
2022/12/07 04:03:58;;;;;;;19.70;10.40;;;;;;;6.47;93.86;99590.25;5052022;28;20188;-72
2022/12/07 04:06:25;;;;;;;17.60;11.03;;;;;;;6.47;92.98;99594.69;5052110;28;20219;-72
2022/12/07 04:08:52;;;;;;;16.23;10.37;;;;;;;6.49;93.29;99592.72;5051689;28;20200;-72
2022/12/07 04:11:18;;;;;;;17.77;10.63;;;;;;;6.46;93.06;99583.34;5051585;28;20622;-72
2022/12/07 04:16:31;;;;;;;18.43;12.97;;;;;;;6.46;94.45;99587.78;5052393;28;20248;-72
2022/12/07 04:18:57;;;;;;;21.80;15.40;;;;;;;6.42;92.62;99583.84;5052280;28;20277;-72
2022/12/07 04:21:24;;;;;;;23.60;14.67;;;;;;;6.37;93.23;99586.97;5052087;28;20184;-73
2022/12/07 04:23:51;;;;;;;28.93;11.87;;;;;;;6.29;93.42;99581.69;5052153;28;20255;-73
2022/12/07 04:26:17;;;;;;;23.63;10.13;;;;;;;6.28;93.08;99574.78;5051860;28;20231;-73
2022/12/07 04:28:44;;;;;;;20.90;10.27;;;;;;;6.25;93.15;99574.31;5051882;28;20195;-73
2022/12/07 04:31:11;;;;;;;14.80;10.33;;;;;;;6.21;93.76;99572.97;5051649;28;20190;-73
2022/12/07 04:33:39;;;;;;;21.77;9.97;;;;;;;6.16;93.46;99576.09;5052051;28;20192;-74
2022/12/07 04:36:06;;;;;;;20.73;9.93;;;;;;;6.19;94.31;99574.94;5051160;28;20223;-73
2022/12/07 04:38:33;;;;;;;24.07;12.73;;;;;;;6.26;94.76;99575.94;5051437;28;20676;-72
2022/12/07 04:41:05;;;;;;;17.57;11.03;;;;;;;6.23;94.13;99576.25;5052095;28;20285;-72
2022/12/07 04:43:32;;;;;;;18.30;11.83;;;;;;;6.17;93.37;99574.31;5051394;28;20198;-72
2022/12/07 04:45:59;;;;;;;27.47;12.33;;;;;;;6.13;93.53;99570.34;5051655;28;20193;-71
2022/12/07 04:48:25;;;;;;;20.50;11.83;;;;;;;6.18;94.51;99573.31;5051453;28;20197;-72
2022/12/07 04:50:53;;;;;;;24.20;10.97;;;;;;;6.19;93.03;99569.69;5051669;28;20196;-72
2022/12/07 04:53:20;;;;;;;20.23;11.57;;;;;;;6.19;94.02;99573.16;5051333;28;20722;-73
2022/12/07 04:55:47;;;;;;;22.20;11.80;;;;;;;6.19;93.72;99574.94;5051407;28;20197;-72
2022/12/07 04:58:14;;;;;;;22.70;12.87;;;;;;;6.21;93.70;99570.34;5051207;28;20622;-72
2022/12/07 05:00:41;;;;;;;20.77;12.80;;;;;;;6.25;93.88;99576.94;5051181;28;20216;-72
2022/12/07 05:03:08;;;;;;;15.57;11.87;;;;;;;6.31;93.67;99578.91;5051426;28;20270;-73
2022/12/07 05:05:35;;;;;;;26.20;12.60;;;;;;;6.33;93.28;99576.94;5053221;28;20215;-73
2022/12/07 05:08:03;;;;;;;57.33;14.07;;;;;;;6.33;92.65;99582.22;5055285;28;20253;-73
2022/12/07 05:10:29;;;;;;;32.67;12.47;;;;;;;6.25;93.00;99590.13;5055444;28;20622;-73
2022/12/07 05:12:56;;;;;;;22.60;12.73;;;;;;;6.14;92.26;99583.38;5054682;28;20681;-73
2022/12/07 05:15:23;;;;;;;25.80;13.57;;;;;;;6.17;93.86;99584.84;5054677;28;20193;-73
2022/12/07 05:17:52;;;;;;;37.00;13.80;;;;;;;6.19;94.18;99580.22;5054583;28;20244;-72
2022/12/07 05:20:18;;;;;;;57.87;14.87;;;;;;;6.15;93.63;99578.91;5055104;28;20230;-72
2022/12/07 05:22:45;;;;;;;45.90;15.90;;;;;;;6.20;93.41;99580.06;5054811;28;20193;-73
2022/12/07 05:25:13;;;;;;;40.30;15.00;;;;;;;6.23;92.67;99581.53;5054888;28;20192;-73
2022/12/07 05:27:40;;;;;;;44.90;14.70;;;;;;;6.26;92.68;99589.13;5054715;28;20227;-73
2022/12/07 05:30:08;;;;;;;44.33;14.83;;;;;;;6.20;92.71;99592.44;5054391;28;20196;-74
2022/12/07 05:32:36;;;;;;;38.77;16.67;;;;;;;6.20;92.47;99595.88;5054657;28;20254;-74
2022/12/07 05:35:02;;;;;;;37.83;17.67;;;;;;;6.20;92.97;99592.44;5054548;28;20242;-74
2022/12/07 05:37:29;;;;;;;60.70;22.17;;;;;;;6.21;92.13;99607.28;5054077;28;20653;-75
2022/12/07 05:39:56;;;;;;;48.80;22.13;;;;;;;6.16;92.59;99604.31;5054171;28;20213;-75
2022/12/07 05:42:24;;;;;;;51.80;22.87;;;;;;;6.15;93.15;99595.56;5051586;28;20209;-75
2022/12/07 05:44:50;;;;;;;50.97;23.57;;;;;;;6.23;93.22;99594.72;5054620;28;20202;-74
2022/12/07 05:47:17;;;;;;;78.17;26.13;;;;;;;6.24;93.25;99588.50;5053898;28;20196;-74
2022/12/07 05:49:44;;;;;;;78.40;30.73;;;;;;;6.19;93.96;99588.13;5053769;28;20202;-74
2022/12/07 05:52:11;;;;;;;52.33;27.67;;;;;;;6.19;94.05;99590.78;5053191;28;20570;-74
2022/12/07 05:54:37;;;;;;;65.00;31.80;;;;;;;6.17;94.15;99584.84;5049474;28;20259;-73
2022/12/07 05:57:04;;;;;;;77.93;32.77;;;;;;;6.18;94.95;99583.84;5051888;28;20196;-72
2022/12/07 05:59:31;;;;;;;97.40;31.43;;;;;;;6.14;95.64;99606.28;5053243;28;20699;-74
2022/12/07 06:02:00;;;;;;;67.47;30.77;;;;;;;6.16;95.83;99601.66;5053575;28;20199;-73
2022/12/07 06:04:30;;;;;;;54.77;27.80;;;;;;;6.18;95.84;99600.50;5053864;28;20265;-73
2022/12/07 06:06:57;;;;;;;50.93;26.53;;;;;;;6.26;95.15;99597.03;5053458;28;20622;-73
2022/12/07 06:09:25;;;;;;;104.37;28.90;;;;;;;6.32;95.72;99596.38;5053786;28;20230;-72
2022/12/07 06:14:37;;;;;;;73.87;26.20;;;;;;;6.35;96.50;99602.16;5053618;28;20187;-73
2022/12/07 06:17:04;;;;;;;43.90;23.33;;;;;;;6.45;96.23;99602.78;5052284;28;20669;-71
2022/12/07 06:19:31;;;;;;;44.93;25.37;;;;;;;6.63;97.22;99602.59;5052995;28;20657;-75
2022/12/07 06:21:57;;;;;;;123.33;42.70;;;;;;;6.89;97.20;99600.53;5053420;28;20259;-73
2022/12/07 06:24:24;;;;;;;98.90;44.87;;;;;;;7.07;94.49;99607.22;5053460;28;20193;-73
2022/12/07 06:26:51;;;;;;;103.37;38.70;;;;;;;7.28;93.66;99606.66;5053606;28;20192;-75
2022/12/07 06:29:19;;;;;;;80.20;34.67;;;;;;;7.34;91.49;99608.59;5052982;28;20227;-75
2022/12/07 06:31:47;;;;;;;58.63;28.07;;;;;;;7.24;91.89;99605.38;5053522;28;20196;-72
2022/12/07 06:34:16;;;;;;;54.43;26.53;;;;;;;7.19;92.31;99608.50;5053482;28;20200;-72
2022/12/07 06:36:43;;;;;;;83.13;25.50;;;;;;;7.15;92.17;99595.84;5053189;28;20246;-71
2022/12/07 06:39:10;;;;;;;104.33;27.30;;;;;;;7.27;92.57;99615.59;5052813;28;20262;-72
2022/12/07 06:41:37;;;;;;;53.10;25.37;;;;;;;7.27;91.55;99620.88;5053928;28;20284;-70
2022/12/07 06:44:05;;;;;;;51.03;25.90;;;;;;;7.40;93.39;99613.22;5052959;28;20642;-73
2022/12/07 06:46:31;;;;;;;48.40;23.13;;;;;;;7.42;91.44;99619.13;5052599;28;20185;-71
2022/12/07 06:48:59;;;;;;;66.07;27.37;;;;;;;7.44;91.60;99622.44;5053029;28;20619;-72
2022/12/07 06:51:26;;;;;;;70.93;25.97;;;;;;;7.52;92.01;99620.56;5052821;28;20729;-69
2022/12/07 06:53:53;;;;;;;54.67;24.13;;;;;;;7.53;91.87;99624.03;5052822;28;20255;-71
2022/12/07 06:56:20;;;;;;;63.40;27.80;;;;;;;7.59;92.24;99621.53;5053143;28;20256;-69
2022/12/07 06:58:47;;;;;;;81.13;25.93;;;;;;;7.67;90.66;99615.38;5052941;28;20253;-72
2022/12/07 07:01:15;;;;;;;52.30;21.47;;;;;;;7.73;91.48;99614.69;5052752;28;20228;-69
2022/12/07 07:03:43;;;;;;;93.33;28.40;;;;;;;7.83;90.69;99604.69;5052089;28;20185;-71
2022/12/07 07:06:11;;;;;;;76.00;30.73;;;;;;;7.82;90.14;99603.03;5050296;28;20192;-71
2022/12/07 07:08:38;;;;;;;90.80;28.67;;;;;;;7.66;89.77;99579.34;5045940;28;20192;-69
2022/12/07 07:11:06;;;;;;;60.30;25.20;;;;;;;7.72;91.73;99586.59;5053420;28;20626;-69
2022/12/07 07:13:32;;;;;;;49.90;22.80;;;;;;;7.97;91.25;99609.22;5052629;28;20266;-69
2022/12/07 07:15:59;;;;;;;50.73;27.27;;;;;;;8.05;89.75;99611.81;5052406;28;20192;-71
2022/12/07 07:18:27;;;;;;;69.27;33.40;;;;;;;8.08;89.81;99611.47;5052342;28;20196;-68
2022/12/07 07:20:55;;;;;;;76.47;25.57;;;;;;;8.09;89.53;99608.63;5049156;28;20238;-71
2022/12/07 07:23:23;;;;;;;60.07;25.27;;;;;;;8.12;89.80;99613.56;5052118;28;20250;-71
2022/12/07 07:25:49;;;;;;;62.57;27.00;;;;;;;8.17;89.74;99620.97;5051631;28;20633;-71
2022/12/07 07:28:17;;;;;;;56.73;27.17;;;;;;;8.18;88.97;99619.97;5051943;28;20192;-72
2022/12/07 07:30:44;;;;;;;47.53;27.87;;;;;;;8.20;89.97;99615.31;5049177;28;20664;-69
2022/12/07 07:33:11;;;;;;;58.93;27.97;;;;;;;8.23;89.51;99609.69;5051277;28;20726;-70
2022/12/07 07:35:38;;;;;;;56.17;27.40;;;;;;;8.37;90.03;99611.59;5048989;28;20196;-71
2022/12/07 07:38:05;;;;;;;59.50;27.07;;;;;;;8.50;89.44;99609.94;5039728;28;20196;-71
2022/12/07 07:40:34;;;;;;;60.80;26.83;;;;;;;8.65;89.21;99620.56;5042640;28;20278;-69
2022/12/07 07:43:00;;;;;;;84.70;29.37;;;;;;;8.72;87.73;99621.50;5051953;28;20196;-68
2022/12/07 07:45:28;;;;;;;49.27;28.67;;;;;;;8.66;87.69;99627.53;5049706;28;20200;-70
2022/12/07 07:47:55;;;;;;;104.77;29.83;;;;;;;8.69;88.06;99632.44;5048364;28;20196;-71
2022/12/07 07:50:22;;;;;;;64.07;30.27;;;;;;;8.83;87.61;99631.66;5051615;28;20253;-69
2022/12/07 07:52:49;;;;;;;125.63;35.40;;;;;;;8.99;87.61;99628.81;5051405;28;20196;-69
2022/12/07 07:55:16;;;;;;;43.77;23.53;;;;;;;9.34;93.03;99634.19;5048935;28;20802;-68
2022/12/07 07:57:44;;;;;;;57.43;24.63;;;;;;;9.43;88.25;99632.25;5051643;28;20189;-68
2022/12/07 08:00:13;;;;;;;44.33;22.87;;;;;;;9.58;87.32;99627.75;5048817;28;20224;-73
2022/12/07 08:02:42;;;;;;;121.20;25.70;;;;;;;9.70;85.12;99626.25;5050609;28;20192;-70
2022/12/07 08:05:09;;;;;;;78.40;24.43;;;;;;;9.90;85.23;99628.13;5051280;28;20626;-70
2022/12/07 08:07:36;;;;;;;44.87;23.27;;;;;;;10.08;83.42;99627.72;5048496;28;20196;-70
2022/12/07 08:10:03;;;;;;;47.40;21.20;;;;;;;10.35;83.12;99629.59;5050099;28;20250;-67
2022/12/07 08:12:30;;;;;;;39.30;21.53;;;;;;;10.61;82.46;99627.16;5051475;28;20192;-67
2022/12/07 08:14:58;;;;;;;39.73;19.87;;;;;;;10.92;81.59;99633.72;5048901;28;20261;-68
2022/12/07 08:17:25;;;;;;;34.53;20.03;;;;;;;11.26;79.83;99638.22;5056111;28;20682;-71
2022/12/07 08:19:51;;;;;;;44.23;20.67;;;;;;;11.61;78.63;99642.50;5051498;28;20293;-71
2022/12/07 08:22:18;;;;;;;53.63;20.73;;;;;;;11.95;76.20;99647.72;5051551;28;20194;-69
2022/12/07 08:24:47;;;;;;;50.40;20.27;;;;;;;12.24;75.95;99647.38;5051919;28;20198;-69
2022/12/07 08:27:13;;;;;;;69.13;21.57;;;;;;;12.31;74.78;99624.25;5052023;28;20616;-68
2022/12/07 08:29:40;;;;;;;52.03;20.87;;;;;;;12.64;73.69;99649.06;5051784;28;20254;-71
2022/12/07 08:32:08;;;;;;;38.20;21.33;;;;;;;12.86;72.68;99641.66;5051055;28;20205;-70
2022/12/07 08:34:35;;;;;;;38.60;20.07;;;;;;;13.24;71.79;99654.13;5051675;28;20199;-68
2022/12/07 08:37:02;;;;;;;33.73;20.20;;;;;;;13.57;70.68;99654.88;5051420;28;20683;-69
2022/12/07 08:39:28;;;;;;;39.77;19.57;;;;;;;13.87;69.11;99658.63;5052229;28;20188;-68
2022/12/07 08:41:55;;;;;;;30.70;19.23;;;;;;;13.86;67.78;99657.00;5055649;28;20251;-68
2022/12/07 08:44:22;;;;;;;49.93;21.37;;;;;;;13.85;68.63;99655.34;5054578;28;20620;-69
2022/12/07 08:46:52;;;;;;;43.03;20.53;;;;;;;14.05;67.97;99644.56;5055077;28;20635;-68
2022/12/07 08:49:24;;;;;;;34.53;21.33;;;;;;;14.13;68.03;99629.09;5055478;28;20248;-66
2022/12/07 08:51:51;;;;;;;42.63;23.13;;;;;;;14.45;67.84;99636.09;5055036;28;20235;-69
2022/12/07 08:54:19;;;;;;;54.90;22.13;;;;;;;14.80;66.73;99639.09;5054828;28;20192;-70
2022/12/07 08:56:48;;;;;;;35.17;22.17;;;;;;;14.89;65.65;99635.94;5055073;28;20246;-70
2022/12/07 08:59:18;;;;;;;42.60;21.60;;;;;;;14.95;66.62;99637.72;5054473;28;20193;-70
2022/12/07 09:01:45;;;;;;;35.07;20.70;;;;;;;14.98;65.95;99633.78;5054103;28;20281;-70
2022/12/07 09:04:12;;;;;;;43.33;22.87;;;;;;;15.21;63.77;99637.47;5054482;28;20306;-69
2022/12/07 09:06:40;;;;;;;58.33;26.93;;;;;;;15.12;64.42;99628.06;5059822;28;20196;-68
2022/12/07 09:09:08;;;;;;;41.03;22.53;;;;;;;14.98;64.74;99618.56;5075111;28;20241;-69
2022/12/07 09:11:35;;;;;;;36.90;22.60;;;;;;;14.76;65.46;99609.31;5055775;28;20266;-68
2022/12/07 09:14:02;;;;;;;36.37;22.80;;;;;;;14.60;66.12;99604.53;5055165;28;20254;-68
2022/12/07 09:16:28;;;;;;;34.70;22.17;;;;;;;14.66;67.03;99594.81;5054509;28;20656;-70
2022/12/07 09:18:55;;;;;;;115.97;30.37;;;;;;;14.87;65.64;99599.75;5054579;28;20242;-70
2022/12/07 09:21:22;;;;;;;40.37;22.97;;;;;;;14.97;63.64;99598.19;5053019;28;20220;-69
2022/12/07 09:23:50;;;;;;;46.93;24.33;;;;;;;14.79;64.89;99584.78;5053594;28;20193;-70
2022/12/07 09:26:16;;;;;;;42.27;24.53;;;;;;;14.73;64.93;99579.50;5053728;28;20672;-70
2022/12/07 09:28:43;;;;;;;49.90;27.27;;;;;;;14.79;65.21;99590.13;5054398;28;20193;-68
2022/12/07 09:31:10;;;;;;;45.53;23.07;;;;;;;14.93;64.51;99580.13;5054226;28;20223;-68
2022/12/07 09:33:36;;;;;;;40.23;21.43;;;;;;;15.05;63.29;99584.53;5052752;28;20695;-68
2022/12/07 09:36:05;;;;;;;31.73;18.90;;;;;;;15.25;63.16;99579.78;5054377;28;20184;-69
2022/12/07 09:38:32;;;;;;;32.70;18.60;;;;;;;15.48;60.44;99579.13;5054143;28;20222;-68
2022/12/07 09:41:05;;;;;;;27.57;16.53;;;;;;;15.57;59.82;99586.59;5052827;28;20260;-67
2022/12/07 09:43:32;;;;;;;31.27;17.03;;;;;;;15.70;59.15;99578.41;5054137;28;20242;-69
2022/12/07 09:45:58;;;;;;;32.03;18.43;;;;;;;15.62;58.41;99570.69;5054055;28;20730;-68
2022/12/07 09:48:31;;;;;;;34.20;20.87;;;;;;;15.58;59.58;99569.50;5054682;28;20193;-72
2022/12/07 09:51:00;;;;;;;36.80;21.87;;;;;;;15.32;59.89;99553.72;5052715;28;20196;-70
2022/12/07 09:53:31;;;;;;;138.30;86.00;;;;;;;15.45;78.44;99516.13;5053874;28;20193;-68
2022/12/07 09:55:58;;;;;;;35.53;22.57;;;;;;;15.89;65.09;99539.78;5054067;28;20185;-71
2022/12/07 09:58:28;;;;;;;39.03;23.90;;;;;;;16.08;61.46;99545.91;5053655;28;20201;-70
2022/12/07 10:00:59;;;;;;;47.73;22.77;;;;;;;16.30;59.38;99562.25;5054381;28;20208;-68
2022/12/07 10:03:27;;;;;;;34.90;20.60;;;;;;;16.24;58.61;99555.94;5054030;28;20645;-69
2022/12/07 10:05:54;;;;;;;34.00;20.43;;;;;;;16.35;58.06;99559.69;5054031;28;20193;-69
2022/12/07 10:08:21;;;;;;;35.60;19.30;;;;;;;16.31;57.28;99563.88;5054118;28;20251;-69
2022/12/07 10:10:52;;;;;;;32.60;18.90;;;;;;;16.15;57.95;99548.47;5053679;28;20284;-68
2022/12/07 10:13:23;;;;;;;37.80;18.00;;;;;;;16.00;58.16;99553.47;5053762;28;20180;-67
2022/12/07 10:15:53;;;;;;;26.83;18.10;;;;;;;16.09;57.64;99544.84;5053733;28;20192;-70
2022/12/07 10:18:31;;;;;;;31.23;19.13;;;;;;;16.07;57.34;99541.59;5053362;28;20246;-68
2022/12/07 10:21:04;;;;;;;33.43;19.80;;;;;;;16.06;57.35;99545.31;5054504;28;20655;-70
2022/12/07 10:23:31;;;;;;;34.27;21.50;;;;;;;16.00;57.39;99532.84;5054133;28;20184;-69
2022/12/07 10:25:58;;;;;;;37.77;20.97;;;;;;;15.95;57.88;99522.00;5053644;28;20258;-71
2022/12/07 10:28:35;;;;;;;49.73;22.40;;;;;;;16.07;58.28;99516.66;5053671;28;20201;-70
2022/12/07 10:31:17;;;;;;;33.67;18.80;;;;;;;16.16;56.42;99517.97;5053505;28;20273;-70
2022/12/07 10:33:51;;;;;;;30.83;18.73;;;;;;;16.08;56.86;99507.59;5053923;28;20188;-70
2022/12/07 10:36:22;;;;;;;49.50;21.70;;;;;;;15.93;57.88;99508.81;5053173;28;20211;-67
2022/12/07 10:38:51;;;;;;;53.77;22.83;;;;;;;15.94;57.77;99504.28;5053765;28;20181;-66
2022/12/07 10:41:18;;;;;;;36.17;22.43;;;;;;;15.96;58.58;99506.75;5053048;28;20228;-65
2022/12/07 10:43:50;;;;;;;47.77;22.57;;;;;;;15.94;59.37;99515.81;5053260;28;20193;-66
2022/12/07 10:46:58;;;;;;;36.47;22.20;;;;;;;16.23;60.65;99513.28;5053313;28;20576;-67
2022/12/07 10:49:56;;;;;;;42.47;22.07;;;;;;;16.08;58.17;99499.53;5004596;28;20192;-68
2022/12/07 10:52:42;;;;;;;79.50;24.43;;;;;;;16.20;58.10;99511.09;5052635;28;20660;-68
2022/12/07 10:55:21;;;;;;;32.27;17.40;;;;;;;16.25;57.90;99511.22;5052928;28;20243;-71
2022/12/07 10:58:01;;;;;;;24.30;16.23;;;;;;;16.21;56.35;99510.03;5052361;28;20181;-71
2022/12/07 11:00:35;;;;;;;38.77;17.50;;;;;;;16.17;57.31;99508.88;5052045;28;20269;-70
2022/12/07 11:03:31;;;;;;;36.07;17.83;;;;;;;16.16;56.83;99507.25;5051884;28;20191;-70
2022/12/07 11:06:07;;;;;;;35.20;19.10;;;;;;;16.19;57.90;99501.41;5051606;28;20207;-72
2022/12/07 11:08:46;;;;;;;32.03;17.73;;;;;;;16.08;57.62;99499.53;5053169;28;20238;-69
2022/12/07 11:11:20;;;;;;;28.67;16.53;;;;;;;15.93;58.48;99483.09;5052440;28;20625;-71
2022/12/07 11:13:54;;;;;;;24.67;15.63;;;;;;;15.79;59.25;99482.47;5053769;28;20185;-71
2022/12/07 11:16:28;;;;;;;26.47;16.37;;;;;;;15.59;58.78;99489.97;5052967;28;20366;-69
2022/12/07 11:19:17;;;;;;;25.13;16.43;;;;;;;15.24;60.89;99473.75;5053742;28;20184;-71
2022/12/07 11:21:56;;;;;;;28.97;15.80;;;;;;;15.25;60.77;99478.09;5051843;28;20236;-72
2022/12/07 11:24:31;;;;;;;102.90;18.50;;;;;;;15.21;61.16;99470.72;5052351;28;20653;-73
2022/12/07 11:27:10;;;;;;;31.00;14.70;;;;;;;15.20;60.92;99459.19;5052504;28;20188;-68
2022/12/07 11:30:04;;;;;;;28.37;14.20;;;;;;;15.14;61.04;99459.28;5052171;28;20188;-68
2022/12/07 11:32:47;;;;;;;23.30;13.70;;;;;;;15.07;60.68;99453.22;5051146;28;20192;-68
2022/12/07 11:35:25;;;;;;;21.20;13.53;;;;;;;14.90;61.26;99453.00;5052191;28;20614;-68
2022/12/07 11:38:01;;;;;;;24.17;12.13;;;;;;;14.95;62.41;99461.16;5052116;28;20242;-69
2022/12/07 11:40:34;;;;;;;26.73;12.43;;;;;;;15.02;61.67;99445.84;5052426;28;20181;-71